Time;durP1;ratioP1;P1;durP2;ratioP2;P2;SDS_P1;SDS_P2;PMS_P1;PMS_P2;Temp;Humidity;BMP_temperature;BMP_pressure;BME280_temperature;BME280_humidity;BME280_pressure;Samples;Min_cycle;Max_cycle;Signal;HPM_P1;HPM_P2
2022/08/23 00:00:51;;;;;;;22.48;16.12;;;;;;;17.96;92.01;100056.72;1894228;93;29333;-76
2022/08/23 00:03:57;;;;;;;19.10;17.02;;;;;;;17.95;92.00;100049.09;1894227;93;28024;-73
2022/08/23 00:07:01;;;;;;;17.55;15.60;;;;;;;17.95;91.97;100044.18;1904802;93;28697;-78
2022/08/23 00:10:04;;;;;;;19.95;16.05;;;;;;;17.95;92.01;100052.31;1894614;93;31067;-79
2022/08/23 00:13:06;;;;;;;17.35;15.63;;;;;;;17.96;92.06;100054.00;1894605;93;33031;-80
2022/08/23 00:16:09;;;;;;;19.87;16.35;;;;;;;17.96;92.03;100055.36;1894908;93;29418;-80
2022/08/23 00:19:15;;;;;;;23.30;15.78;;;;;;;17.97;92.04;100049.83;1895056;93;27751;-79
2022/08/23 00:22:17;;;;;;;20.20;16.77;;;;;;;17.98;92.03;100048.88;1894961;93;28724;-80
2022/08/23 00:25:19;;;;;;;20.95;17.12;;;;;;;17.99;92.03;100041.59;1895316;93;31135;-79
2022/08/23 00:28:21;;;;;;;18.73;16.60;;;;;;;17.98;92.00;100045.28;1895225;93;33000;-81
2022/08/23 00:31:23;;;;;;;18.32;16.25;;;;;;;17.99;92.00;100047.00;1895215;93;29327;-80
2022/08/23 00:34:25;;;;;;;21.65;16.25;;;;;;;17.99;91.96;100046.53;1895389;93;27755;-81
2022/08/23 00:37:31;;;;;;;18.85;16.25;;;;;;;18.00;91.98;100044.66;1895207;93;28677;-75
2022/08/23 00:40:33;;;;;;;22.37;15.10;;;;;;;18.00;92.02;100042.83;1894890;93;31106;-79
2022/08/23 00:50:37;;;;;;;20.30;16.80;;;;;;;17.96;91.97;100030.97;1894821;93;27844;-78
2022/08/23 00:53:48;;;;;;;20.32;16.87;;;;;;;17.94;91.99;100031.11;1894629;93;28829;-79
2022/08/23 00:56:51;;;;;;;19.70;16.90;;;;;;;17.92;92.01;100023.13;1904997;91;30891;-75
2022/08/23 00:59:53;;;;;;;18.20;16.02;;;;;;;17.90;92.05;100019.68;1846067;95;32994;-82
2022/08/23 01:02:56;;;;;;;20.00;16.48;;;;;;;17.90;92.07;100026.94;1895103;93;29612;-80
2022/08/23 01:06:21;;;;;;;18.92;16.93;;;;;;;17.83;91.96;100018.47;1895503;93;27666;-80
2022/08/23 01:09:25;;;;;;;18.98;16.87;;;;;;;17.87;91.96;100028.06;1894918;93;31746;-80
2022/08/23 01:12:35;;;;;;;22.98;16.87;;;;;;;17.83;91.92;100033.37;1894505;93;31182;-76
2022/08/23 01:15:42;;;;;;;18.37;16.37;;;;;;;17.77;91.90;100009.52;1961845;90;32942;-80
2022/08/23 01:18:45;;;;;;;23.10;16.00;;;;;;;17.78;91.96;100016.66;1900904;93;29558;-78
2022/08/23 01:21:55;;;;;;;20.05;16.77;;;;;;;17.74;91.96;100010.63;1933406;91;27860;-79
2022/08/23 01:24:57;;;;;;;18.32;14.90;;;;;;;17.73;92.06;100008.91;1931094;91;28686;-82
2022/08/23 01:28:00;;;;;;;25.23;15.70;;;;;;;17.65;92.06;100000.58;1942705;90;31095;-82
2022/08/23 01:31:02;;;;;;;17.10;15.32;;;;;;;17.69;92.10;100008.82;1960439;90;32972;-80
2022/08/23 01:34:09;;;;;;;19.87;15.10;;;;;;;17.68;92.18;100008.93;1943313;90;29340;-82
2022/08/23 01:37:11;;;;;;;23.65;15.45;;;;;;;17.67;92.10;100020.75;1960622;90;27989;-82
2022/08/23 01:40:13;;;;;;;16.85;14.05;;;;;;;17.66;92.13;100036.64;1923111;90;28652;-80
2022/08/23 01:43:18;;;;;;;17.52;14.23;;;;;;;17.63;92.19;100079.76;1960283;90;30681;-76
2022/08/23 01:46:24;;;;;;;19.45;14.25;;;;;;;17.60;92.19;100078.66;1960610;90;33002;-81
2022/08/23 01:49:26;;;;;;;18.27;13.98;;;;;;;17.60;92.30;100079.53;1960709;90;29323;-82
2022/08/23 01:52:29;;;;;;;177.60;19.82;;;;;;;17.62;92.42;100088.88;1960316;90;27939;-79
2022/08/23 01:59:00;;;;;;;33.55;16.25;;;;;;;17.60;95.80;100094.91;2094990;84;28316;-64
2022/08/23 02:02:02;;;;;;;17.30;14.70;;;;;;;17.59;96.00;100087.77;2069434;84;33074;-65
2022/08/23 02:05:06;;;;;;;27.75;16.27;;;;;;;17.53;96.07;100091.84;2068662;86;30621;-64
2022/08/23 02:11:16;;;;;;;19.60;15.13;;;;;;;17.48;96.41;100102.70;1982049;89;28704;-65
2022/08/23 02:14:20;;;;;;;27.67;15.55;;;;;;;17.43;96.34;100106.63;1998004;89;31112;-64
2022/08/23 02:17:22;;;;;;;24.77;14.57;;;;;;;17.44;96.60;100107.52;1998267;89;33215;-64
2022/08/23 02:20:24;;;;;;;22.90;15.98;;;;;;;17.42;96.49;100095.43;1998008;89;30695;-64
2022/08/23 02:23:26;;;;;;;22.22;13.83;;;;;;;17.41;96.39;100106.41;1998050;89;27802;-64
2022/08/23 02:26:28;;;;;;;17.40;14.43;;;;;;;17.38;96.35;100096.66;1998187;89;29131;-65
2022/08/23 02:29:29;;;;;;;25.25;13.90;;;;;;;17.36;96.27;100094.59;2020019;88;33180;-64
2022/08/23 02:32:31;;;;;;;22.73;12.78;;;;;;;17.35;96.17;100087.94;1998232;89;33489;-65
2022/08/23 02:35:32;;;;;;;13.75;11.10;;;;;;;17.28;95.96;100079.45;1997958;89;29382;-65
2022/08/23 02:38:34;;;;;;;12.25;11.05;;;;;;;17.22;95.65;100082.65;1998449;89;27736;-65
2022/08/23 02:41:37;;;;;;;12.50;11.20;;;;;;;17.13;95.57;100078.37;1998025;89;44164;-65
2022/08/23 02:44:38;;;;;;;11.40;10.10;;;;;;;17.11;95.62;100079.48;1998243;89;31476;-65
2022/08/23 02:47:40;;;;;;;13.18;10.40;;;;;;;17.05;95.58;100075.91;2014536;86;32446;-65
2022/08/23 02:50:41;;;;;;;15.60;11.45;;;;;;;17.01;95.64;100073.45;2069053;86;29741;-65
2022/08/23 02:53:43;;;;;;;11.95;9.88;;;;;;;16.98;95.68;100077.75;2069185;85;27700;-65
2022/08/23 02:56:45;;;;;;;11.38;10.28;;;;;;;16.95;95.75;100082.08;2041566;85;29315;-66
2022/08/23 02:59:46;;;;;;;10.88;9.13;;;;;;;16.93;95.74;100074.54;2066635;84;31107;-65
2022/08/23 03:02:48;;;;;;;9.90;8.90;;;;;;;16.93;95.86;100073.66;2065985;86;34197;-65
2022/08/23 03:05:49;;;;;;;11.93;9.20;;;;;;;16.89;95.76;100075.77;2066719;86;30241;-65
2022/08/23 03:08:51;;;;;;;12.15;8.93;;;;;;;16.87;95.80;100076.37;2066363;86;27711;-66
2022/08/23 03:11:52;;;;;;;10.40;9.30;;;;;;;16.84;95.76;100072.55;2066220;86;29923;-66
2022/08/23 03:14:55;;;;;;;10.18;9.13;;;;;;;16.83;95.83;100071.70;2066155;86;31491;-65
2022/08/23 03:17:56;;;;;;;10.65;8.58;;;;;;;16.84;95.93;100079.31;2065921;86;33093;-66
2022/08/23 03:20:58;;;;;;;13.15;9.55;;;;;;;16.82;95.80;100079.92;2066271;86;30531;-66
2022/08/23 03:23:59;;;;;;;9.38;8.45;;;;;;;16.80;95.78;100084.12;2066036;86;28240;-66
2022/08/23 03:27:03;;;;;;;12.30;8.90;;;;;;;16.80;95.82;100082.77;2079394;84;28467;-66
2022/08/23 03:30:07;;;;;;;9.33;8.33;;;;;;;16.81;95.79;100083.61;2102690;84;32026;-65
2022/08/23 03:33:08;;;;;;;10.30;9.30;;;;;;;16.79;95.73;100085.09;2102947;84;33015;-66
2022/08/23 03:36:12;;;;;;;12.88;7.97;;;;;;;16.78;95.82;100077.97;2102861;84;29702;-66
2022/08/23 03:39:13;;;;;;;8.58;7.83;;;;;;;16.78;95.72;100072.55;2102517;84;27687;-66
2022/08/23 03:42:16;;;;;;;9.00;8.13;;;;;;;16.77;95.69;100064.58;2102533;84;28685;-66
2022/08/23 03:45:18;;;;;;;8.23;7.45;;;;;;;16.75;95.64;100067.89;2102538;84;31154;-65
2022/08/23 03:48:20;;;;;;;10.90;8.33;;;;;;;16.76;95.79;100075.87;2102688;84;33009;-65
2022/08/23 03:51:23;;;;;;;9.45;7.30;;;;;;;16.77;95.66;100076.75;2102584;84;30531;-65
2022/08/23 03:54:25;;;;;;;9.85;8.50;;;;;;;16.77;95.64;100075.39;2103015;84;27689;-65
2022/08/23 03:57:27;;;;;;;9.43;8.25;;;;;;;16.77;95.69;100068.63;2086461;84;29347;-65
2022/08/23 04:00:29;;;;;;;9.88;8.95;;;;;;;16.77;95.61;100064.58;2072442;85;32370;-66
2022/08/23 04:03:30;;;;;;;9.70;7.70;;;;;;;16.77;95.64;100068.63;2072221;85;35166;-66
2022/08/23 04:06:32;;;;;;;9.85;8.75;;;;;;;16.79;95.70;100062.61;2072478;85;30034;-65
2022/08/23 04:09:34;;;;;;;14.40;8.73;;;;;;;16.81;95.70;100061.97;2072828;85;27610;-66
2022/08/23 04:12:35;;;;;;;9.30;7.83;;;;;;;16.82;95.65;100060.52;2072640;85;29167;-67
2022/08/23 04:15:37;;;;;;;10.03;9.13;;;;;;;16.83;95.58;100062.71;2072682;85;31672;-65
2022/08/23 04:18:39;;;;;;;9.28;8.40;;;;;;;16.84;95.53;100069.84;2072682;85;32478;-65
2022/08/23 04:21:45;;;;;;;13.80;8.73;;;;;;;16.85;95.48;100064.80;2072817;85;29254;-65
2022/08/23 04:24:47;;;;;;;10.68;9.68;;;;;;;16.85;95.58;100062.09;2072936;85;27732;-65
2022/08/23 04:27:48;;;;;;;9.45;8.45;;;;;;;16.89;95.68;100051.41;2094028;84;29413;-65
2022/08/23 04:30:51;;;;;;;10.23;8.78;;;;;;;16.92;95.64;100061.11;2102847;84;32252;-65
2022/08/23 04:33:54;;;;;;;9.35;8.50;;;;;;;16.93;95.46;100081.78;2102706;84;32960;-65
2022/08/23 04:36:56;;;;;;;10.20;8.33;;;;;;;16.93;95.35;100098.02;2102736;84;29506;-65
2022/08/23 04:43:18;;;;;;;10.13;9.13;;;;;;;16.93;95.56;100088.55;2102858;84;28694;-65
2022/08/23 04:46:19;;;;;;;8.75;8.00;;;;;;;16.93;95.37;100091.25;2102944;84;31412;-65
2022/08/23 04:49:22;;;;;;;11.08;9.55;;;;;;;16.92;95.35;100100.34;2103060;84;33921;-65
2022/08/23 04:52:23;;;;;;;10.08;9.03;;;;;;;16.92;95.29;100106.64;2102743;84;30189;-65
2022/08/23 04:55:25;;;;;;;9.55;8.65;;;;;;;16.89;95.18;100113.64;2102978;84;27600;-65
2022/08/23 04:58:27;;;;;;;11.05;9.80;;;;;;;16.89;95.25;100109.58;2064530;84;29536;-65
2022/08/23 05:01:29;;;;;;;10.13;9.20;;;;;;;16.91;95.33;100118.92;2060686;86;31499;-65
2022/08/23 05:04:30;;;;;;;10.93;9.28;;;;;;;16.93;95.38;100115.61;2060946;86;33214;-65
2022/08/23 05:07:32;;;;;;;9.75;8.90;;;;;;;16.95;95.32;100120.44;2060595;86;29786;-65
2022/08/23 05:10:33;;;;;;;10.30;9.40;;;;;;;16.96;95.39;100118.10;2060949;86;27706;-65
2022/08/23 05:13:37;;;;;;;11.38;9.63;;;;;;;16.98;95.33;100115.63;2060597;86;29938;-65
2022/08/23 05:16:38;;;;;;;9.75;8.85;;;;;;;17.03;95.45;100119.83;2060826;86;31868;-65
2022/08/23 05:19:40;;;;;;;11.50;9.45;;;;;;;17.06;95.36;100121.78;2060811;86;33359;-65
2022/08/23 05:22:41;;;;;;;10.10;9.08;;;;;;;17.07;95.27;100123.51;2075698;84;29558;-65
2022/08/23 05:25:48;;;;;;;15.40;9.83;;;;;;;17.10;95.21;100122.42;2102002;84;27672;-64
2022/08/23 05:28:50;;;;;;;11.93;10.72;;;;;;;17.13;95.22;100126.21;2102737;84;29079;-65
2022/08/23 05:31:52;;;;;;;12.47;9.70;;;;;;;17.18;95.20;100129.93;2102770;84;31474;-65
2022/08/23 05:34:54;;;;;;;13.98;10.80;;;;;;;17.19;95.18;100135.20;2102441;84;33897;-65
2022/08/23 05:37:58;;;;;;;11.63;10.45;;;;;;;17.22;95.13;100135.44;2102765;84;30134;-65
2022/08/23 05:41:01;;;;;;;13.58;11.80;;;;;;;17.25;94.97;100142.84;2102806;83;27730;-65
2022/08/23 05:44:03;;;;;;;12.20;10.95;;;;;;;17.26;95.01;100139.16;2102712;84;28677;-65
2022/08/23 05:47:07;;;;;;;14.83;11.80;;;;;;;17.32;95.04;100135.09;2102764;84;31424;-65
2022/08/23 05:50:09;;;;;;;13.30;11.75;;;;;;;17.37;95.05;100141.48;2102840;84;32949;-65
2022/08/23 05:53:10;;;;;;;13.03;11.63;;;;;;;17.41;95.07;100133.48;2083059;84;30428;-65
2022/08/23 05:56:29;;;;;;;13.35;12.15;;;;;;;17.43;94.99;100126.09;2093447;84;27655;-65
2022/08/23 05:59:31;;;;;;;15.25;11.88;;;;;;;17.49;95.19;100128.80;2101027;83;29198;-64
2022/08/23 06:02:33;;;;;;;14.33;12.82;;;;;;;17.57;95.23;100138.49;2102225;84;31457;-65
2022/08/23 06:05:40;;;;;;;17.65;12.88;;;;;;;17.60;95.07;100145.90;2079277;84;34082;-65
2022/08/23 06:08:45;;;;;;;16.45;13.00;;;;;;;17.65;94.88;100138.74;2060576;84;29391;-64
2022/08/23 06:11:47;;;;;;;18.80;13.32;;;;;;;17.69;94.94;100137.98;2060693;86;27672;-65
2022/08/23 06:14:49;;;;;;;17.77;14.28;;;;;;;17.76;94.88;100137.86;2071672;84;28122;-64
2022/08/23 06:17:50;;;;;;;16.55;14.85;;;;;;;17.86;95.11;100139.31;2102104;84;31776;-65
2022/08/23 06:21:08;;;;;;;20.55;14.87;;;;;;;17.93;94.88;100148.64;2101429;84;33776;-66
2022/08/23 06:24:11;;;;;;;16.70;14.15;;;;;;;18.00;94.90;100151.25;2099762;84;29416;-65
2022/08/23 06:27:13;;;;;;;17.73;14.50;;;;;;;18.07;94.78;100159.22;2060304;86;27729;-67
2022/08/23 06:30:14;;;;;;;17.07;14.07;;;;;;;18.14;94.74;100166.34;2060173;86;28681;-66
2022/08/23 06:33:16;;;;;;;17.37;13.40;;;;;;;18.17;94.26;100179.64;2060236;86;31002;-66
2022/08/23 06:36:17;;;;;;;15.88;14.15;;;;;;;18.17;93.94;100176.94;2089782;84;33791;-65
2022/08/23 06:39:21;;;;;;;22.02;15.32;;;;;;;18.14;93.44;100185.32;2101727;84;29420;-67
2022/08/23 06:42:23;;;;;;;19.52;15.85;;;;;;;18.17;93.89;100179.64;2072119;85;27659;-65
2022/08/23 06:45:25;;;;;;;17.55;15.28;;;;;;;18.17;93.89;100179.64;2071897;85;28652;-67
2022/08/23 06:48:26;;;;;;;19.65;15.72;;;;;;;18.22;93.82;100190.09;2071999;85;31904;-66
2022/08/23 06:51:36;;;;;;;23.85;15.23;;;;;;;18.26;93.67;100179.87;2071547;85;33804;-67
2022/08/23 06:54:38;;;;;;;23.02;16.25;;;;;;;18.36;94.10;100175.39;2071939;85;29319;-64
2022/08/23 06:57:40;;;;;;;25.57;18.15;;;;;;;18.50;94.21;100172.36;2071724;84;28301;-66
2022/08/23 07:00:42;;;;;;;22.27;16.10;;;;;;;18.70;94.54;100175.73;2075655;85;29097;-66
2022/08/23 07:03:43;;;;;;;18.42;16.42;;;;;;;18.84;94.08;100182.18;2075513;85;31957;-66
2022/08/23 07:06:45;;;;;;;18.40;14.58;;;;;;;18.97;93.54;100180.63;2075415;85;32942;-65
2022/08/23 07:09:47;;;;;;;20.70;15.53;;;;;;;19.01;92.89;100188.03;2075423;85;29996;-67
2022/08/23 07:12:49;;;;;;;17.60;15.70;;;;;;;19.02;92.45;100189.76;2075454;85;27728;-67
2022/08/23 07:15:51;;;;;;;19.65;13.83;;;;;;;19.02;92.33;100187.89;2075375;85;28991;-66
2022/08/23 07:18:54;;;;;;;19.42;13.98;;;;;;;19.00;91.90;100197.17;2024725;85;31806;-65
2022/08/23 07:21:59;;;;;;;14.50;13.00;;;;;;;18.97;92.00;100200.51;2075071;85;33034;-65
2022/08/23 07:25:01;;;;;;;17.80;14.43;;;;;;;18.96;92.00;100195.20;2075369;85;29338;-67
2022/08/23 07:28:03;;;;;;;20.68;15.43;;;;;;;18.90;91.49;100197.91;2075374;85;28030;-66
2022/08/23 07:31:12;;;;;;;16.82;14.70;;;;;;;18.85;91.39;100187.09;2075276;85;29476;-65
2022/08/23 07:34:15;;;;;;;18.17;14.20;;;;;;;18.83;91.60;100199.46;2072892;85;31863;-65
2022/08/23 07:37:16;;;;;;;17.07;14.25;;;;;;;18.80;91.43;100192.42;2075049;85;34084;-65
2022/08/23 07:40:18;;;;;;;15.32;13.25;;;;;;;18.74;91.15;100192.97;2075393;85;30069;-66
2022/08/23 07:43:19;;;;;;;16.17;13.62;;;;;;;18.70;90.81;100208.30;2075601;85;27711;-66
2022/08/23 07:46:21;;;;;;;18.52;14.73;;;;;;;18.62;91.01;100212.52;2075418;85;29536;-65
2022/08/23 07:49:23;;;;;;;18.27;15.30;;;;;;;18.60;91.30;100209.06;2075321;85;31003;-66
2022/08/23 07:52:24;;;;;;;24.12;14.90;;;;;;;18.64;91.53;100212.37;2075248;85;33043;-66
2022/08/23 07:55:26;;;;;;;30.88;16.15;;;;;;;18.67;91.72;100207.56;2075330;85;29347;-66
2022/08/23 07:58:28;;;;;;;23.70;17.30;;;;;;;18.71;91.80;100197.30;2074329;85;27683;-66
2022/08/23 08:01:30;;;;;;;18.77;16.23;;;;;;;18.78;92.25;100186.77;2068756;85;28881;-67
2022/08/23 08:04:31;;;;;;;27.07;18.95;;;;;;;18.91;92.46;100188.78;2069022;86;31298;-67
2022/08/23 08:07:33;;;;;;;21.23;15.23;;;;;;;19.09;93.24;100189.56;2069025;85;33030;-67
2022/08/23 08:10:39;;;;;;;19.77;15.05;;;;;;;19.36;93.05;100197.14;2069041;86;29351;-67
2022/08/23 08:13:44;;;;;;;16.55;14.85;;;;;;;19.49;92.51;100213.22;2069222;86;27600;-68
2022/08/23 08:16:49;;;;;;;17.48;15.15;;;;;;;19.58;92.04;100221.90;2069187;86;28699;-66
2022/08/23 08:19:50;;;;;;;15.38;13.72;;;;;;;19.69;91.60;100219.59;2068712;86;32133;-66
2022/08/23 08:22:53;;;;;;;19.27;15.95;;;;;;;19.81;91.62;100218.98;2068997;86;32947;-66
2022/08/23 08:26:07;;;;;;;17.75;15.90;;;;;;;20.00;92.03;100214.13;2068980;86;29425;-66
2022/08/23 08:29:10;;;;;;;18.52;16.20;;;;;;;20.30;92.60;100203.30;2069247;86;27693;-67
2022/08/23 08:32:12;;;;;;;17.40;15.48;;;;;;;20.82;93.45;100206.26;2068736;86;28814;-66
2022/08/23 08:35:13;;;;;;;18.98;16.97;;;;;;;21.19;92.48;100208.16;2069158;86;31032;-66
2022/08/23 08:38:14;;;;;;;17.95;15.68;;;;;;;21.52;91.86;100208.14;2069126;86;33748;-66
2022/08/23 08:41:19;;;;;;;16.85;15.08;;;;;;;21.78;91.46;100214.28;2069222;86;29328;-65
2022/08/23 08:44:45;;;;;;;11.68;10.35;;;;;;;21.89;90.42;100218.67;2069399;86;27720;-68
2022/08/23 08:48:08;;;;;;;11.08;9.75;;;;;;;21.96;88.78;100218.44;2069097;82;28678;-66
2022/08/23 08:51:21;;;;;;;11.12;10.13;;;;;;;22.00;88.94;100226.67;2117303;84;31006;-67
2022/08/23 08:54:27;;;;;;;9.43;8.58;;;;;;;22.13;88.68;100230.37;2115245;84;29634;-67
2022/08/23 08:57:42;;;;;;;11.50;9.38;;;;;;;22.11;87.20;100233.76;2114932;84;29321;-66
2022/08/23 09:00:45;;;;;;;9.63;8.73;;;;;;;22.06;86.98;100237.47;2106636;82;27854;-66
2022/08/23 09:03:47;;;;;;;9.95;8.95;;;;;;;22.06;87.13;100240.69;2104720;84;29586;-66
2022/08/23 09:07:08;;;;;;;9.73;8.40;;;;;;;22.07;86.41;100248.74;2078332;84;27699;-68
2022/08/23 09:10:38;;;;;;;10.95;9.23;;;;;;;21.93;85.07;100251.95;1990249;88;32958;-67
2022/08/23 09:13:58;;;;;;;13.32;9.38;;;;;;;21.80;85.85;100249.59;1990369;88;29316;-66
2022/08/23 09:17:06;;;;;;;11.05;9.95;;;;;;;21.77;85.95;100253.46;2016262;87;28013;-67
2022/08/23 09:20:09;;;;;;;10.55;9.58;;;;;;;21.75;86.12;100258.23;2028981;87;29450;-66
2022/08/23 09:23:21;;;;;;;12.40;9.48;;;;;;;21.75;85.76;100254.14;1995717;89;31100;-67
2022/08/23 09:26:29;;;;;;;10.72;9.73;;;;;;;21.81;85.68;100244.50;1984804;89;32966;-65
2022/08/23 09:29:39;;;;;;;11.30;10.20;;;;;;;21.85;86.06;100245.89;2000751;89;29810;-66
2022/08/23 09:32:44;;;;;;;8.83;7.85;;;;;;;21.91;85.97;100248.55;2000826;89;27758;-66
2022/08/23 09:36:05;;;;;;;8.25;7.10;;;;;;;21.88;84.93;100247.48;1998161;87;28667;-64
2022/08/23 09:39:24;;;;;;;13.28;7.15;;;;;;;21.84;84.81;100253.23;1990331;89;31068;-66
2022/08/23 09:42:36;;;;;;;8.13;7.33;;;;;;;21.82;84.85;100248.94;1989930;89;33037;-68
2022/08/23 09:45:52;;;;;;;8.95;6.90;;;;;;;21.76;84.25;100254.98;2007248;84;29990;-67
2022/08/23 09:49:00;;;;;;;7.85;7.15;;;;;;;21.68;84.39;100259.31;2103737;84;27595;-67
2022/08/23 09:52:27;;;;;;;8.18;7.47;;;;;;;21.64;84.39;100255.19;2068408;86;28844;-66
2022/08/23 09:55:35;;;;;;;7.60;6.87;;;;;;;;;;1973945;89;31142;-67
2022/08/23 09:58:40;;;;;;;8.03;7.30;;;;;;;21.56;84.14;100261.84;1969779;89;33232;-67
2022/08/23 10:01:43;;;;;;;8.95;7.80;;;;;;;21.58;84.54;100250.81;1994491;89;29773;-66
2022/08/23 10:04:59;;;;;;;9.40;7.83;;;;;;;21.65;84.73;100254.67;1957368;90;27753;-67
2022/08/23 10:08:02;;;;;;;11.60;8.25;;;;;;;21.70;84.68;100258.66;1977841;89;29088;-66
2022/08/23 10:11:27;;;;;;;8.93;8.03;;;;;;;21.78;84.68;100258.43;1978293;90;31935;-65
2022/08/23 10:14:31;;;;;;;10.30;8.40;;;;;;;21.90;85.07;100267.28;1978604;88;34194;-67
2022/08/23 10:17:49;;;;;;;;;;;;;;;21.99;83.81;100268.59;1981043;89;29378;-67
2022/08/23 10:21:02;;;;;;;8.03;7.22;;;;;;;22.07;84.33;100274.66;1946199;91;27761;-67
2022/08/23 10:24:21;;;;;;;8.30;7.58;;;;;;;22.03;83.27;100277.81;1978699;89;29597;-66
2022/08/23 10:31:23;;;;;;;8.05;6.50;;;;;;;22.00;83.62;100270.80;1920433;90;33179;-67
2022/08/23 10:34:46;;;;;;;8.35;7.65;;;;;;;21.98;83.49;100268.24;1975019;90;29400;-67
2022/08/23 10:38:34;;;;;;;8.20;7.47;;;;;;;22.11;84.07;100271.95;2029761;87;27784;-65
2022/08/23 10:42:00;;;;;;;8.65;7.60;;;;;;;22.34;84.20;100266.08;2040208;87;29715;-65
2022/08/23 10:45:21;;;;;;;;;;;;;;;22.46;83.79;100265.39;2043265;87;31093;-66
2022/08/23 10:48:28;;;;;;;7.55;6.80;;;;;;;22.47;82.90;100265.75;2021489;86;34385;-66
2022/08/23 10:51:35;;;;;;;8.25;7.45;;;;;;;22.48;82.63;100270.20;2047734;86;29375;-67
2022/08/23 10:54:46;;;;;;;8.15;7.30;;;;;;;22.47;82.73;100271.20;2048044;86;27647;-66
2022/08/23 10:57:48;;;;;;;8.50;7.60;;;;;;;22.39;81.99;100273.80;2103856;84;29295;-67
2022/08/23 11:00:51;;;;;;;7.72;7.00;;;;;;;22.33;82.42;100272.55;2109247;83;31243;-66
2022/08/23 11:04:06;;;;;;;8.63;7.72;;;;;;;22.30;82.20;100276.45;2104960;84;33810;-66
2022/08/23 11:07:36;;;;;;;9.00;7.50;;;;;;;22.33;82.26;100282.11;2044727;86;29452;-66
2022/08/23 11:10:42;;;;;;;9.45;7.47;;;;;;;22.40;82.77;100275.52;2066198;84;27664;-66
2022/08/23 11:13:49;;;;;;;8.33;7.17;;;;;;;22.47;82.49;100286.22;2066347;86;28661;-66
2022/08/23 11:16:59;;;;;;;8.73;7.92;;;;;;;22.52;82.40;100278.92;2066370;84;31804;-65
2022/08/23 11:20:08;;;;;;;10.15;7.17;;;;;;;22.61;82.71;100275.25;2075326;85;33032;-66
2022/08/23 11:23:13;;;;;;;7.33;6.62;;;;;;;22.71;82.46;100276.05;2076040;85;29373;-66
2022/08/23 11:26:40;;;;;;;8.40;6.55;;;;;;;22.81;82.05;100285.53;2067541;85;27721;-67
2022/08/23 11:29:42;;;;;;;8.45;6.25;;;;;;;22.88;81.82;100277.05;1998336;87;28284;-66
2022/08/23 11:32:47;;;;;;;8.83;6.75;;;;;;;23.06;82.05;100267.97;2069806;86;31797;-66
2022/08/23 11:35:54;;;;;;;;;;;;;;;23.25;81.84;100271.56;2075170;84;32819;-65
2022/08/23 11:39:01;;;;;;;8.95;7.67;;;;;;;23.40;81.41;100267.75;2104915;84;29339;-67
2022/08/23 11:42:07;;;;;;;8.78;7.80;;;;;;;23.49;81.09;100265.40;2104711;83;28196;-66
2022/08/23 11:45:38;;;;;;;10.55;7.05;;;;;;;23.51;80.48;100270.20;2105307;83;29038;-67
2022/08/23 11:48:42;;;;;;;7.95;7.15;;;;;;;23.52;80.32;100272.77;2036734;87;31045;-66
2022/08/23 11:52:22;;;;;;;;;;;;;;;23.48;80.04;100273.25;2020283;87;33931;-66
2022/08/23 11:55:52;;;;;;;8.05;7.25;;;;;;;23.52;80.05;100271.92;2036433;87;29362;-66
2022/08/23 11:59:34;;;;;;;9.43;7.95;;;;;;;23.42;79.59;100278.86;2036133;87;27743;-66
2022/08/23 12:03:03;;;;;;;8.68;7.25;;;;;;;23.38;79.60;100279.34;2036170;87;28697;-66
2022/08/23 12:06:13;;;;;;;9.08;8.18;;;;;;;23.27;79.25;100283.20;2046191;84;31116;-67
2022/08/23 12:09:30;;;;;;;10.48;7.80;;;;;;;23.24;79.63;100284.87;2105233;84;32942;-66
2022/08/23 12:12:38;;;;;;;11.53;8.38;;;;;;;23.24;79.75;100283.02;2104664;84;29413;-67
2022/08/23 12:16:18;;;;;;;11.60;9.10;;;;;;;23.28;79.95;100285.76;2069397;86;28490;-67
2022/08/23 12:19:52;;;;;;;8.20;7.40;;;;;;;23.33;79.73;100286.67;1975440;90;28719;-67
2022/08/23 12:23:15;;;;;;;8.40;7.60;;;;;;;23.33;79.58;100289.41;1966127;90;31092;-66
2022/08/23 12:26:43;;;;;;;9.90;7.30;;;;;;;23.26;79.27;100289.69;1954250;88;33744;-66
2022/08/23 12:29:54;;;;;;;8.50;6.72;;;;;;;23.21;79.36;100286.91;2040036;87;29589;-65
2022/08/23 12:33:07;;;;;;;8.58;7.70;;;;;;;23.18;79.50;100280.88;2030042;87;28335;-67
2022/08/23 12:36:29;;;;;;;10.45;8.55;;;;;;;23.16;79.43;100285.64;2022469;87;28700;-67
2022/08/23 12:39:39;;;;;;;8.83;7.92;;;;;;;23.08;79.08;100286.96;1988220;89;31108;-66
2022/08/23 12:42:41;;;;;;;9.65;8.65;;;;;;;23.00;79.23;100286.38;2022860;88;33011;-68
2022/08/23 12:45:51;;;;;;;9.25;7.30;;;;;;;22.96;79.35;100284.98;2022739;88;29331;-66
2022/08/23 12:48:54;;;;;;;7.47;6.20;;;;;;;22.89;79.37;100282.86;1999787;88;27801;-67
2022/08/23 12:52:00;;;;;;;8.35;6.90;;;;;;;22.85;79.25;100283.34;2002807;88;28683;-64
2022/08/23 12:55:17;;;;;;;7.65;6.65;;;;;;;22.78;79.11;100286.33;2002877;88;31430;-67
2022/08/23 12:58:26;;;;;;;9.40;5.92;;;;;;;22.67;78.77;100277.89;2057711;86;34001;-65
2022/08/23 13:01:37;;;;;;;10.20;6.87;;;;;;;22.61;79.26;100274.77;2031494;87;29333;-66
2022/08/23 13:04:42;;;;;;;7.75;6.50;;;;;;;22.58;79.46;100279.69;1999592;89;27777;-66
2022/08/23 13:07:44;;;;;;;9.50;6.40;;;;;;;22.58;79.59;100271.49;1999710;89;29357;-65
2022/08/23 13:10:46;;;;;;;7.67;6.65;;;;;;;22.60;79.37;100275.77;1998208;85;31097;-66
2022/08/23 13:13:48;;;;;;;8.95;7.40;;;;;;;22.63;79.64;100280.58;2109287;84;33608;-68
2022/08/23 13:16:52;;;;;;;9.35;7.67;;;;;;;22.67;79.57;100286.09;2108935;84;30175;-65
2022/08/23 13:20:15;;;;;;;8.30;6.93;;;;;;;22.69;79.61;100282.17;2082025;84;27666;-65
2022/08/23 13:23:22;;;;;;;7.12;6.42;;;;;;;22.72;79.59;100282.36;2107440;84;28131;-66
2022/08/23 13:26:40;;;;;;;10.10;6.83;;;;;;;22.73;79.48;100281.34;2107615;84;31041;-66
2022/08/23 13:29:53;;;;;;;10.38;7.78;;;;;;;22.71;79.39;100280.16;2109196;84;32991;-65
2022/08/23 13:33:15;;;;;;;10.05;7.85;;;;;;;22.67;79.32;100288.81;2108987;84;30295;-66
2022/08/23 13:36:23;;;;;;;11.53;9.50;;;;;;;22.63;79.44;100293.70;2109391;84;27651;-67
2022/08/23 13:39:30;;;;;;;14.70;10.70;;;;;;;22.55;79.57;100289.55;2107931;84;27686;-65
2022/08/23 13:42:47;;;;;;;14.68;12.33;;;;;;;22.53;79.48;100295.66;2099012;84;31152;-65
2022/08/23 13:45:53;;;;;;;12.28;10.95;;;;;;;22.46;79.44;100294.91;2078657;84;33052;-65
2022/08/23 13:49:20;;;;;;;14.93;11.88;;;;;;;22.42;79.80;100296.22;2081922;84;29328;-65
2022/08/23 13:52:22;;;;;;;14.33;12.65;;;;;;;22.39;79.87;100291.06;2109235;84;27776;-66
2022/08/23 13:55:25;;;;;;;14.53;12.15;;;;;;;22.37;79.98;100290.34;2072115;85;29610;-64
2022/08/23 13:58:32;;;;;;;14.70;13.03;;;;;;;22.36;80.17;100295.45;2112766;84;31067;-66
2022/08/23 14:01:34;;;;;;;14.60;12.28;;;;;;;22.33;80.15;100293.02;2086338;84;32957;-66
2022/08/23 14:04:36;;;;;;;14.58;13.15;;;;;;;;;;2058578;84;29366;-65
2022/08/23 14:07:38;;;;;;;17.50;12.95;;;;;;;22.31;80.32;100304.11;2054583;86;27825;-65
2022/08/23 14:10:40;;;;;;;15.18;13.58;;;;;;;22.29;80.38;100300.67;2054456;86;28648;-68
2022/08/23 14:13:45;;;;;;;16.00;14.43;;;;;;;22.27;80.27;100308.14;2078366;84;31041;-67
2022/08/23 14:16:47;;;;;;;19.35;14.95;;;;;;;22.23;80.12;100298.53;2095659;84;33832;-67
2022/08/23 14:19:49;;;;;;;16.42;14.70;;;;;;;22.21;80.29;100299.19;2095836;83;30127;-66
2022/08/23 14:22:51;;;;;;;18.10;14.98;;;;;;;22.20;80.61;100297.47;2085629;84;27871;-65
2022/08/23 14:25:55;;;;;;;18.42;15.53;;;;;;;22.20;80.62;100295.27;2078107;84;28816;-66
2022/08/23 14:28:57;;;;;;;23.13;14.93;;;;;;;22.15;80.60;100293.84;2095755;83;31713;-67
2022/08/23 14:32:02;;;;;;;18.20;16.07;;;;;;;22.10;80.59;100292.58;2095710;84;32973;-67
2022/08/23 14:35:06;;;;;;;20.27;14.50;;;;;;;22.04;80.66;100295.91;2094489;84;30242;-67
2022/08/23 14:38:09;;;;;;;16.75;14.80;;;;;;;21.99;80.73;100292.27;2095384;85;27702;-67